Time;durP1;ratioP1;P1;durP2;ratioP2;P2;SDS_P1;SDS_P2;PMS_P1;PMS_P2;Temp;Humidity;BMP_temperature;BMP_pressure;BME280_temperature;BME280_humidity;BME280_pressure;Samples;Min_cycle;Max_cycle;Signal;HPM_P1;HPM_P2
2023/01/21 00:00:53;;;;;;;;;;;;;;;7.21;48.07;102552.84;6210291;23;19908;-84
2023/01/21 00:03:19;;;;;;;;;;;;;;;7.23;48.60;102554.31;6209403;23;19912;-84
2023/01/21 00:05:44;;;;;;;;;;;;;;;7.23;48.46;102550.81;6184513;23;19982;-84
2023/01/21 00:08:09;;;;;;;;;;;;;;;7.22;48.09;102549.16;6209227;23;19940;-84
2023/01/21 00:10:35;;;;;;;;;;;;;;;7.23;48.40;102553.50;6209979;23;19916;-84
2023/01/21 00:13:00;;;;;;;;;;;;;;;7.23;48.38;102550.81;6209137;23;19907;-84
2023/01/21 00:15:26;;;;;;;;;;;;;;;7.19;48.10;102549.53;6209440;23;19907;-83
2023/01/21 00:17:52;;;;;;;;;;;;;;;7.16;48.30;102564.03;6209174;23;19908;-84
2023/01/21 00:20:17;;;;;;;;;;;;;;;7.16;48.19;102550.69;6209422;23;19912;-84
2023/01/21 00:22:43;;;;;;;;;;;;;;;7.18;48.30;102556.69;6210282;23;19918;-84
2023/01/21 00:25:08;;;;;;;;;;;;;;;7.21;48.52;102566.19;6208061;23;19986;-84
2023/01/21 00:27:33;;;;;;;;;;;;;;;7.22;48.17;102557.16;6210118;23;19935;-84
2023/01/21 00:29:59;;;;;;;;;;;;;;;7.21;48.21;102564.34;6210093;23;20335;-84
2023/01/21 00:32:24;;;;;;;;;;;;;;;7.21;48.57;102567.00;6182435;23;20338;-84
2023/01/21 00:34:49;;;;;;;;;;;;;;;7.22;48.34;102565.16;6210507;23;19915;-84
2023/01/21 00:37:15;;;;;;;;;;;;;;;7.23;48.51;102569.47;6209270;23;19918;-84
2023/01/21 00:39:41;;;;;;;;;;;;;;;7.22;48.27;102562.50;6210313;23;19969;-84
2023/01/21 00:42:12;;;;;;;;;;;;;;;7.21;48.06;102566.19;6209532;23;19911;-84
2023/01/21 00:44:38;;;;;;;;;;;;;;;7.19;48.33;102566.34;6210722;23;20358;-84
2023/01/21 00:47:04;;;;;;;;;;;;;;;7.20;48.14;102570.69;6209935;23;19911;-83
2023/01/21 00:49:29;;;;;;;;;;;;;;;7.21;48.22;102572.34;6209881;23;19943;-84
2023/01/21 00:51:55;;;;;;;;;;;;;;;7.21;48.46;102583.00;6207541;23;20339;-84
2023/01/21 00:54:20;;;;;;;;;;;;;;;7.21;48.72;102577.66;6208731;23;19912;-83
2023/01/21 00:56:45;;;;;;;;;;;;;;;7.25;48.17;102583.47;6210852;23;19912;-84
2023/01/21 00:59:11;;;;;;;;;;;;;;;7.27;48.21;102581.44;6208221;23;19927;-83
2023/01/21 01:01:37;;;;;;;;;;;;;;;7.29;48.55;102587.41;6209825;23;19912;-84
2023/01/21 01:04:04;;;;;;;;;;;;;;;7.32;48.08;102583.56;6209867;23;19908;-84
2023/01/21 01:06:29;;;;;;;;;;;;;;;7.31;48.32;102592.56;6208792;23;20251;-84
2023/01/21 01:08:57;;;;;;;;;;;;;;;7.32;48.14;102588.88;6209379;23;19935;-84
2023/01/21 01:11:25;;;;;;;;;;;;;;;7.31;48.11;102596.06;6209428;23;19912;-84
2023/01/21 01:13:51;;;;;;;;;;;;;;;7.31;48.33;102582.72;6210255;23;19918;-84
2023/01/21 01:16:16;;;;;;;;;;;;;;;7.29;47.98;102584.75;6210125;23;19908;-83
2023/01/21 01:18:42;;;;;;;;;;;;;;;7.23;48.04;102590.81;6210681;23;19911;-84
2023/01/21 01:21:10;;;;;;;;;;;;;;;7.19;48.53;102595.69;6208169;23;20169;-84
2023/01/21 01:23:35;;;;;;;;;;;;;;;7.20;48.26;102596.50;6209618;23;19916;-84
2023/01/21 01:26:02;;;;;;;;;;;;;;;7.22;48.45;102599.81;6208898;23;19985;-84
2023/01/21 01:28:29;;;;;;;;;;;;;;;7.24;48.22;102595.97;6209007;23;20352;-84
2023/01/21 01:30:55;;;;;;;;;;;;;;;7.25;48.21;102600.28;6182161;23;19908;-84
2023/01/21 01:33:20;;;;;;;;;;;;;;;7.25;48.14;102605.63;6208984;23;20328;-84
2023/01/21 01:35:46;;;;;;;;;;;;;;;7.24;48.08;102600.47;6208700;23;20062;-84
2023/01/21 01:38:13;;;;;;;;;;;;;;;7.21;48.31;102609.66;6208000;23;19943;-84
2023/01/21 01:40:39;;;;;;;;;;;;;;;7.18;48.31;102604.69;6207467;23;20239;-84
2023/01/21 01:43:25;;;;;;;;;;;;;;;7.18;48.25;102599.34;6209488;23;19908;-84
2023/01/21 01:45:51;;;;;;;;;;;;;;;7.20;48.42;102608.00;6147700;23;19916;-84
2023/01/21 01:48:26;;;;;;;;;;;;;;;7.19;48.25;102611.69;6209437;23;19908;-84
2023/01/21 01:50:53;;;;;;;;;;;;;;;7.21;48.13;102614.16;6209247;23;20147;-84
2023/01/21 01:53:19;;;;;;;;;;;;;;;7.22;48.14;102608.66;6208796;23;19912;-84
2023/01/21 01:55:46;;;;;;;;;;;;;;;7.25;48.50;102618.13;6209586;23;20328;-84
2023/01/21 01:58:13;;;;;;;;;;;;;;;7.24;48.37;102613.78;6208420;23;19918;-84
2023/01/21 02:00:38;;;;;;;;;;;;;;;7.23;48.41;102612.13;6208517;23;19911;-84
2023/01/21 02:05:48;;;;;;;;;;;;;;;7.22;48.59;102602.47;6208862;23;19918;-84
2023/01/21 02:08:14;;;;;;;;;;;;;;;7.19;47.95;102601.00;6207641;23;20347;-84
2023/01/21 02:10:39;;;;;;;;;;;;;;;7.18;48.44;102609.16;6208379;23;19998;-84
2023/01/21 02:13:05;;;;;;;;;;;;;;;7.15;48.03;102614.84;6208867;23;19961;-84
2023/01/21 02:15:39;;;;;;;;;;;;;;;7.14;48.18;102622.03;6208599;23;19947;-84
2023/01/21 02:18:31;;;;;;;;;;;;;;;7.15;48.12;102621.03;6208996;23;20382;-84
2023/01/21 02:21:15;;;;;;;;;;;;;;;7.14;48.22;102610.53;6161679;23;20364;-84
2023/01/21 02:24:09;;;;;;;;;;;;;;;7.10;48.47;102611.91;6209088;23;19990;-84
2023/01/21 02:26:58;;;;;;;;;;;;;;;7.09;48.47;102620.91;6181631;23;19927;-84
2023/01/21 02:29:38;;;;;;;;;;;;;;;7.10;48.18;102626.06;6207896;23;19962;-84
2023/01/21 02:32:13;;;;;;;;;;;;;;;7.12;48.40;102628.56;6206273;23;20351;-84
2023/01/21 02:34:42;;;;;;;;;;;;;;;7.13;48.14;102641.69;6209745;23;19939;-84
2023/01/21 02:37:23;;;;;;;;;;;;;;;7.13;48.47;102649.69;6207699;23;20333;-84
2023/01/21 02:40:05;;;;;;;;;;;;;;;7.13;48.58;102640.88;6209083;23;20409;-84
2023/01/21 02:42:36;;;;;;;;;;;;;;;7.13;48.16;102638.19;6208295;23;20353;-84
2023/01/21 02:45:14;;;;;;;;;;;;;;;7.13;48.47;102639.03;6210584;23;19962;-84
2023/01/21 02:47:42;;;;;;;;;;;;;;;7.09;48.46;102652.91;6211625;23;19907;-84
2023/01/21 02:50:14;;;;;;;;;;;;;;;7.08;48.26;102651.25;6210515;23;19958;-84
2023/01/21 02:52:40;;;;;;;;;;;;;;;7.10;48.48;102650.06;6184032;23;19918;-84
2023/01/21 02:55:11;;;;;;;;;;;;;;;7.10;48.14;102649.22;6211726;23;19927;-84
2023/01/21 02:57:36;;;;;;;;;;;;;;;7.10;48.39;102650.06;6211298;23;19970;-84
2023/01/21 03:00:14;;;;;;;;;;;;;;;7.10;48.54;102644.72;6210242;23;20335;-84
2023/01/21 03:03:14;;;;;;;;;;;;;;;7.12;48.63;102656.03;6208323;22;20244;-87
2023/01/21 03:05:52;;;;;;;;;;;;;;;7.15;48.36;102660.19;6089658;23;19921;-87
2023/01/21 03:08:19;;;;;;;;;;;;;;;7.16;48.48;102653.84;6195986;23;19990;-87
2023/01/21 03:10:54;;;;;;;;;;;;;;;7.18;48.24;102650.00;6211067;23;19942;-87
2023/01/21 03:16:55;;;;;;;;;;;;;;;7.19;48.60;102651.66;6212478;23;20270;-87
2023/01/21 03:18:57;;;;;;;;;;;;;;;7.23;48.52;102657.47;6209511;23;19993;-87
2023/01/21 03:21:25;;;;;;;;;;;;;;;7.22;48.03;102651.31;6212217;23;19937;-87
2023/01/21 03:23:51;;;;;;;;;;;;;;;7.19;48.37;102656.16;6212674;23;19923;-87
2023/01/21 03:26:21;;;;;;;;;;;;;;;7.17;48.18;102653.66;6212047;23;19907;-87
2023/01/21 03:28:50;;;;;;;;;;;;;;;7.14;48.42;102651.34;6210715;23;19908;-87
2023/01/21 03:31:18;;;;;;;;;;;;;;;7.10;48.42;102649.22;6211747;23;19908;-87
2023/01/21 03:33:47;;;;;;;;;;;;;;;7.09;48.41;102636.91;6213141;23;19987;-87
2023/01/21 03:36:22;;;;;;;;;;;;;;;7.08;48.29;102637.91;6212619;23;19987;-87
2023/01/21 03:38:50;;;;;;;;;;;;;;;7.02;48.14;102626.16;6211103;23;19935;-87
2023/01/21 03:41:19;;;;;;;;;;;;;;;6.98;48.52;102640.81;6212366;23;19908;-87
2023/01/21 03:43:45;;;;;;;;;;;;;;;6.96;48.44;102641.00;6212200;23;19916;-87
2023/01/21 03:46:26;;;;;;;;;;;;;;;6.93;48.57;102644.00;6212588;23;19912;-87
2023/01/21 03:49:01;;;;;;;;;;;;;;;6.89;48.77;102655.22;6210886;23;19927;-87
2023/01/21 03:51:41;;;;;;;;;;;;;;;6.88;48.89;102653.56;6211182;23;20265;-87
2023/01/21 03:54:06;;;;;;;;;;;;;;;6.88;48.54;102653.56;6212518;23;19904;-87
2023/01/21 03:56:31;;;;;;;;;;;;;;;6.91;48.54;102659.34;6212215;23;19918;-87
2023/01/21 03:58:57;;;;;;;;;;;;;;;6.94;48.83;102667.00;6210995;23;19912;-87
2023/01/21 04:01:23;;;;;;;;;;;;;;;6.98;48.64;102665.63;6210767;23;20332;-87
2023/01/21 04:03:48;;;;;;;;;;;;;;;7.00;48.97;102667.28;6211425;23;19949;-87
2023/01/21 04:06:21;;;;;;;;;;;;;;;7.03;48.85;102665.13;6211600;23;20031;-87
2023/01/21 04:08:46;;;;;;;;;;;;;;;7.07;48.35;102665.59;6210321;23;19927;-87
2023/01/21 04:11:12;;;;;;;;;;;;;;;7.07;48.63;102662.91;6211626;23;19990;-87
2023/01/21 04:13:37;;;;;;;;;;;;;;;7.07;48.78;102660.25;6211784;23;19912;-87
2023/01/21 04:16:03;;;;;;;;;;;;;;;7.07;48.82;102660.25;6211372;23;19934;-87
2023/01/21 04:18:29;;;;;;;;;;;;;;;7.09;48.51;102663.56;6211321;23;19986;-87
2023/01/21 04:20:54;;;;;;;;;;;;;;;7.10;48.59;102666.06;6211075;23;19911;-87
2023/01/21 04:23:19;;;;;;;;;;;;;;;7.09;48.72;102666.22;6212105;23;20038;-87
2023/01/21 04:25:48;;;;;;;;;;;;;;;7.10;48.51;102675.88;6211821;23;19958;-87
2023/01/21 04:28:14;;;;;;;;;;;;;;;7.11;48.71;102677.53;6210798;23;19915;-87
2023/01/21 04:30:39;;;;;;;;;;;;;;;7.12;48.70;102689.84;6211196;23;19912;-87
2023/01/21 04:33:05;;;;;;;;;;;;;;;7.14;48.65;102694.00;6184779;23;19912;-87
2023/01/21 04:35:30;;;;;;;;;;;;;;;7.14;48.35;102695.84;6211250;23;19959;-87
2023/01/21 04:37:55;;;;;;;;;;;;;;;7.10;48.27;102692.72;6209849;23;19983;-87
2023/01/21 04:40:21;;;;;;;;;;;;;;;7.08;48.07;102693.91;6212039;23;19919;-87
2023/01/21 04:42:47;;;;;;;;;;;;;;;7.03;48.69;102691.78;6184888;23;19916;-87
2023/01/21 04:45:12;;;;;;;;;;;;;;;7.04;48.31;102689.94;6212164;23;19935;-87
2023/01/21 04:47:41;;;;;;;;;;;;;;;7.03;48.26;102696.28;6212003;23;19986;-87
2023/01/21 04:50:07;;;;;;;;;;;;;;;7.01;48.21;102692.97;6210841;23;19916;-87
2023/01/21 04:52:32;;;;;;;;;;;;;;;7.03;48.21;102701.59;6210882;23;19908;-88
2023/01/21 04:54:58;;;;;;;;;;;;;;;7.07;48.57;102698.41;6211605;23;19912;-87
2023/01/21 04:57:23;;;;;;;;;;;;;;;7.06;48.58;102706.56;6210924;23;19920;-87
2023/01/21 04:59:48;;;;;;;;;;;;;;;7.06;48.45;102707.41;6211822;23;19985;-87
2023/01/21 05:02:14;;;;;;;;;;;;;;;7.07;48.63;102713.56;6211384;23;19916;-87
2023/01/21 05:04:39;;;;;;;;;;;;;;;7.07;48.24;102717.06;6211228;23;20335;-87
2023/01/21 05:07:04;;;;;;;;;;;;;;;7.10;48.35;102724.69;6210995;23;19908;-87
2023/01/21 05:09:30;;;;;;;;;;;;;;;7.10;48.35;102729.19;6211022;23;19920;-86
2023/01/21 05:11:55;;;;;;;;;;;;;;;7.11;48.26;102738.84;6211320;23;19908;-87
2023/01/21 05:14:21;;;;;;;;;;;;;;;7.10;48.37;102746.03;6210316;23;20355;-87
2023/01/21 05:16:46;;;;;;;;;;;;;;;7.13;48.87;102744.84;6212287;23;19934;-88
2023/01/21 05:19:11;;;;;;;;;;;;;;;7.14;48.74;102749.16;6211579;23;19912;-87
2023/01/21 05:21:37;;;;;;;;;;;;;;;7.15;48.37;102754.31;6209911;23;19908;-87
2023/01/21 05:24:02;;;;;;;;;;;;;;;7.15;48.22;102766.81;6211592;23;19923;-87
2023/01/21 05:26:28;;;;;;;;;;;;;;;7.14;48.15;102762.47;6211708;23;20044;-87
2023/01/21 05:28:53;;;;;;;;;;;;;;;7.14;48.52;102762.47;6210964;23;19908;-87
2023/01/21 05:31:18;;;;;;;;;;;;;;;7.14;48.18;102752.66;6211091;23;19915;-87
2023/01/21 05:33:45;;;;;;;;;;;;;;;7.14;48.60;102749.16;6211275;23;19962;-88
2023/01/21 05:36:11;;;;;;;;;;;;;;;7.12;48.26;102754.66;6211815;23;19930;-87
2023/01/21 05:38:36;;;;;;;;;;;;;;;7.09;48.20;102757.69;6211186;23;20335;-87
2023/01/21 05:41:02;;;;;;;;;;;;;;;7.11;48.24;102765.50;6210872;23;19919;-87
2023/01/21 05:43:28;;;;;;;;;;;;;;;7.12;48.29;102770.66;6211344;23;19944;-87
2023/01/21 05:45:54;;;;;;;;;;;;;;;7.15;48.28;102774.81;6185466;23;19908;-87
2023/01/21 05:48:20;;;;;;;;;;;;;;;7.17;48.21;102772.78;6210589;23;19938;-87
2023/01/21 05:50:46;;;;;;;;;;;;;;;7.16;48.20;102768.47;6209361;23;19919;-86
2023/01/21 05:53:11;;;;;;;;;;;;;;;7.17;48.13;102772.78;6207253;23;19923;-87
2023/01/21 05:55:37;;;;;;;;;;;;;;;7.14;48.00;102779.31;6208602;23;19977;-87
2023/01/21 05:58:02;;;;;;;;;;;;;;;7.14;48.22;102778.47;6208759;23;19918;-87
2023/01/21 06:00:27;;;;;;;;;;;;;;;7.12;48.28;102770.66;6208215;23;19915;-87
2023/01/21 06:02:53;;;;;;;;;;;;;;;7.14;48.42;102783.81;6208588;23;19923;-87
2023/01/21 06:05:18;;;;;;;;;;;;;;;7.12;48.10;102786.66;6206792;23;20321;-88
2023/01/21 06:07:44;;;;;;;;;;;;;;;7.10;48.25;102788.66;6209291;23;19908;-87
2023/01/21 06:10:09;;;;;;;;;;;;;;;7.08;48.52;102792.53;6210951;23;19923;-87
2023/01/21 06:12:35;;;;;;;;;;;;;;;7.03;48.07;102798.38;6211652;23;19930;-85
2023/01/21 06:15:00;;;;;;;;;;;;;;;7.02;48.30;102798.56;6209575;23;19919;-86
2023/01/21 06:17:29;;;;;;;;;;;;;;;7.00;48.31;102805.88;6210430;23;19912;-87
2023/01/21 06:19:54;;;;;;;;;;;;;;;6.97;48.59;102809.72;6211602;23;19908;-87
2023/01/21 06:22:19;;;;;;;;;;;;;;;6.96;48.38;102806.22;6185415;23;20347;-87
2023/01/21 06:24:45;;;;;;;;;;;;;;;6.95;48.06;102806.41;6207615;23;19911;-87
2023/01/21 06:27:11;;;;;;;;;;;;;;;6.94;48.58;102810.91;6211994;22;19943;-87
2023/01/21 06:29:36;;;;;;;;;;;;;;;6.94;48.50;102808.22;6212502;23;20092;-86
2023/01/21 06:32:01;;;;;;;;;;;;;;;6.94;48.13;102812.72;6214270;23;19908;-86
2023/01/21 06:34:27;;;;;;;;;;;;;;;6.95;48.63;102811.72;6214115;23;19908;-87
2023/01/21 06:36:52;;;;;;;;;;;;;;;6.93;48.62;102811.91;6213895;23;19908;-86
2023/01/21 06:39:17;;;;;;;;;;;;;;;6.94;48.32;102805.56;6215267;23;20359;-86
2023/01/21 06:41:43;;;;;;;;;;;;;;;6.96;48.21;102808.88;6215007;23;20251;-86
2023/01/21 06:44:08;;;;;;;;;;;;;;;6.98;48.12;102800.72;6214172;23;19912;-87
2023/01/21 06:46:34;;;;;;;;;;;;;;;6.97;48.36;102799.06;6214164;23;19994;-87
2023/01/21 06:48:59;;;;;;;;;;;;;;;6.95;48.37;102801.06;6213836;23;20322;-85
2023/01/21 06:51:24;;;;;;;;;;;;;;;6.94;48.04;102805.56;6214371;23;19962;-86
2023/01/21 06:53:50;;;;;;;;;;;;;;;6.90;48.31;102793.59;6214751;23;19956;-87
2023/01/21 06:56:15;;;;;;;;;;;;;;;6.89;48.37;102793.78;6214665;23;19941;-86
2023/01/21 06:58:40;;;;;;;;;;;;;;;6.86;47.99;102791.47;6214258;23;20439;-86
2023/01/21 07:01:06;;;;;;;;;;;;;;;6.85;48.30;102790.63;6214221;23;19915;-86
2023/01/21 07:03:31;;;;;;;;;;;;;;;6.86;48.11;102794.97;6214255;23;19912;-86
2023/01/21 07:05:57;;;;;;;;;;;;;;;6.86;48.13;102786.97;6213768;23;19908;-86
2023/01/21 07:08:22;;;;;;;;;;;;;;;6.86;48.00;102783.47;6213907;23;19943;-86
2023/01/21 07:10:47;;;;;;;;;;;;;;;6.84;48.01;102788.16;6214812;23;19959;-86
2023/01/21 07:13:13;;;;;;;;;;;;;;;6.82;48.02;102801.66;6212949;23;19908;-86
2023/01/21 07:15:38;;;;;;;;;;;;;;;6.80;48.50;102794.81;6214699;23;20316;-86
2023/01/21 07:18:04;;;;;;;;;;;;;;;6.76;48.35;102788.16;6214493;23;19908;-86
2023/01/21 07:20:29;;;;;;;;;;;;;;;6.73;48.17;102805.34;6213700;23;20245;-85
2023/01/21 07:22:54;;;;;;;;;;;;;;;6.74;48.69;102804.31;6213905;23;19912;-86
2023/01/21 07:25:20;;;;;;;;;;;;;;;6.73;48.21;102801.84;6213760;23;20286;-86
2023/01/21 07:27:45;;;;;;;;;;;;;;;6.70;48.28;102808.34;6214108;23;19916;-86
2023/01/21 07:30:14;;;;;;;;;;;;;;;6.68;48.36;102807.69;6216484;23;20382;-86
2023/01/21 07:32:40;;;;;;;;;;;;;;;6.71;48.36;102804.69;6215481;23;19908;-86
2023/01/21 07:35:05;;;;;;;;;;;;;;;6.72;48.30;102806.34;6215951;23;19995;-86
2023/01/21 07:37:35;;;;;;;;;;;;;;;6.72;48.25;102805.50;6215907;23;19915;-86
2023/01/21 07:40:06;;;;;;;;;;;;;;;6.73;48.44;102809.84;6214788;23;19911;-86
2023/01/21 07:42:32;;;;;;;;;;;;;;;6.74;48.50;102803.50;6214276;23;19923;-85
2023/01/21 07:44:58;;;;;;;;;;;;;;;6.73;48.35;102797.34;6214570;23;20391;-86
2023/01/21 07:47:24;;;;;;;;;;;;;;;6.72;48.61;102801.00;6214206;23;19907;-86
2023/01/21 07:49:49;;;;;;;;;;;;;;;6.74;48.47;102793.66;6214266;23;19991;-86
2023/01/21 07:52:14;;;;;;;;;;;;;;;6.74;48.55;102785.69;6214596;23;19908;-87
2023/01/21 07:54:40;;;;;;;;;;;;;;;6.76;48.63;102791.66;6213506;23;19954;-86
2023/01/21 07:57:05;;;;;;;;;;;;;;;6.78;48.42;102784.31;6212615;23;20251;-87
2023/01/21 07:59:30;;;;;;;;;;;;;;;6.80;48.44;102784.97;6186877;23;19958;-86
2023/01/21 08:01:56;;;;;;;;;;;;;;;6.81;48.36;102777.81;6213146;23;19912;-86
2023/01/21 08:04:22;;;;;;;;;;;;;;;6.84;48.32;102773.00;6213197;23;19919;-86
2023/01/21 08:06:47;;;;;;;;;;;;;;;6.85;48.40;102774.66;6213252;23;19912;-86
2023/01/21 08:09:13;;;;;;;;;;;;;;;6.87;48.49;102780.63;6213409;23;20384;-87
2023/01/21 08:11:38;;;;;;;;;;;;;;;6.91;48.30;102775.78;6213534;23;19908;-86
2023/01/21 08:14:04;;;;;;;;;;;;;;;6.92;48.54;102762.28;6213225;23;20097;-86
2023/01/21 08:16:29;;;;;;;;;;;;;;;6.96;48.56;102774.25;6212682;23;19919;-87
2023/01/21 08:18:55;;;;;;;;;;;;;;;6.98;48.34;102774.91;6213190;23;19911;-86
2023/01/21 08:21:20;;;;;;;;;;;;;;;7.03;48.23;102766.41;6211411;23;19908;-88
2023/01/21 08:23:46;;;;;;;;;;;;;;;7.08;48.17;102763.19;6211637;23;19912;-87
2023/01/21 08:26:11;;;;;;;;;;;;;;;7.07;48.17;102769.53;6213142;23;19991;-86
2023/01/21 08:28:36;;;;;;;;;;;;;;;7.08;48.21;102766.69;6213310;23;19908;-86
2023/01/21 08:31:03;;;;;;;;;;;;;;;7.12;48.35;102764.50;6212880;23;20367;-86
2023/01/21 08:33:28;;;;;;;;;;;;;;;7.18;48.30;102769.97;6213388;23;19935;-85
2023/01/21 08:35:57;;;;;;;;;;;;;;;7.22;48.23;102765.13;6212953;23;19934;-86
2023/01/21 08:38:23;;;;;;;;;;;;;;;7.27;48.17;102774.25;6213281;23;20019;-86
2023/01/21 08:40:48;;;;;;;;;;;;;;;7.32;48.09;102771.03;6185993;23;20347;-86
2023/01/21 08:43:14;;;;;;;;;;;;;;;7.36;48.16;102779.50;6212782;23;19912;-85
2023/01/21 08:45:39;;;;;;;;;;;;;;;7.38;48.03;102783.69;6212742;23;20472;-86
2023/01/21 08:48:05;;;;;;;;;;;;;;;7.43;48.39;102785.81;6212792;23;19908;-86
2023/01/21 08:50:30;;;;;;;;;;;;;;;7.44;48.00;102782.13;6185935;23;20389;-86
2023/01/21 08:52:55;;;;;;;;;;;;;;;7.46;48.27;102780.13;6211515;23;19919;-86
2023/01/21 08:55:25;;;;;;;;;;;;;;;7.48;47.94;102786.91;6212708;23;20236;-86
2023/01/21 08:57:52;;;;;;;;;;;;;;;7.51;47.89;102775.06;6213023;23;20283;-86
2023/01/21 09:00:18;;;;;;;;;;;;;;;7.53;47.85;102778.38;6186231;23;20284;-86
2023/01/21 09:02:43;;;;;;;;;;;;;;;7.54;47.97;102786.22;6211564;23;19986;-87
2023/01/21 09:05:09;;;;;;;;;;;;;;;7.57;47.82;102783.19;6213174;23;19935;-86
2023/01/21 09:07:34;;;;;;;;;;;;;;;7.60;47.84;102778.50;6212874;23;19911;-87
2023/01/21 09:10:00;;;;;;;;;;;;;;;7.62;48.13;102772.00;6212888;23;20291;-86
2023/01/21 09:12:25;;;;;;;;;;;;;;;7.67;48.22;102782.13;6211677;23;19912;-87
2023/01/21 09:14:51;;;;;;;;;;;;;;;7.71;48.07;102772.72;6211941;23;19915;-87
2023/01/21 09:17:16;;;;;;;;;;;;;;;7.74;47.89;102775.91;6211531;23;19908;-85
2023/01/21 09:19:41;;;;;;;;;;;;;;;7.75;48.21;102787.41;6211826;23;19919;-88
2023/01/21 09:22:08;;;;;;;;;;;;;;;7.78;47.66;102782.53;6211570;23;19969;-86
2023/01/21 09:24:33;;;;;;;;;;;;;;;7.82;48.08;102783.00;6211559;23;19915;-88
2023/01/21 09:26:59;;;;;;;;;;;;;;;7.84;47.75;102788.97;6211644;23;19946;-88
2023/01/21 09:29:24;;;;;;;;;;;;;;;7.86;47.94;102789.63;6212266;23;19919;-87
2023/01/21 09:31:49;;;;;;;;;;;;;;;7.90;47.78;102788.28;6212093;23;19908;-88
2023/01/21 09:34:15;;;;;;;;;;;;;;;7.94;48.20;102786.91;6211848;23;19962;-88
2023/01/21 09:36:40;;;;;;;;;;;;;;;8.01;47.77;102793.16;6212223;23;20240;-88
2023/01/21 09:39:06;;;;;;;;;;;;;;;8.08;47.71;102788.78;6185350;23;19946;-88
2023/01/21 09:41:53;;;;;;;;;;;;;;;8.10;47.65;102791.25;6211658;23;19924;-86
2023/01/21 09:44:35;;;;;;;;;;;;;;;8.12;47.72;102784.72;6212153;23;19912;-88
2023/01/21 09:47:10;;;;;;;;;;;;;;;8.16;47.73;102775.34;6210374;23;19990;-88
2023/01/21 09:50:02;;;;;;;;;;;;;;;8.17;48.09;102785.00;6211734;23;19944;-86
2023/01/21 09:52:47;;;;;;;;;;;;;;;8.24;47.80;102787.75;6165234;23;19990;-87
2023/01/21 09:55:15;;;;;;;;;;;;;;;8.29;48.00;102784.56;6212328;23;20350;-88
2023/01/21 09:57:41;;;;;;;;;;;;;;;8.32;47.89;102777.00;6211605;23;20399;-88
2023/01/21 10:00:06;;;;;;;;;;;;;;;8.37;47.65;102779.97;6210989;23;19983;-86
2023/01/21 10:02:38;;;;;;;;;;;;;;;8.41;47.63;102777.75;6210591;23;19931;-88
2023/01/21 10:05:13;;;;;;;;;;;;;;;8.46;47.91;102780.72;6209651;23;19908;-89
2023/01/21 10:07:45;;;;;;;;;;;;;;;8.47;47.86;102772.53;6184612;23;20521;-89
2023/01/21 10:10:25;;;;;;;;;;;;;;;8.51;48.04;102772.97;6211050;23;20338;-88
2023/01/21 10:13:12;;;;;;;;;;;;;;;8.51;47.87;102766.81;6212075;23;20294;-87
2023/01/21 10:15:43;;;;;;;;;;;;;;;8.54;47.68;102764.59;6211081;23;19928;-87
2023/01/21 10:18:18;;;;;;;;;;;;;;;8.61;47.65;102759.31;6211384;23;19942;-88
2023/01/21 10:20:47;;;;;;;;;;;;;;;8.63;47.99;102755.47;6210888;23;19908;-85
2023/01/21 10:23:25;;;;;;;;;;;;;;;8.65;47.62;102758.78;6210714;23;19912;-89
2023/01/21 10:25:51;;;;;;;;;;;;;;;8.70;48.09;102759.06;6211293;23;19918;-87
2023/01/21 10:28:19;;;;;;;;;;;;;;;8.72;47.71;102765.03;6210065;23;20324;-87
2023/01/21 10:30:50;;;;;;;;;;;;;;;8.77;48.13;102756.44;6210326;23;19983;-88
2023/01/21 10:33:25;;;;;;;;;;;;;;;8.83;48.06;102752.22;6210012;23;19966;-88
2023/01/21 10:35:56;;;;;;;;;;;;;;;8.84;47.89;102746.69;6209013;23;19911;-88
2023/01/21 10:38:42;;;;;;;;;;;;;;;8.89;47.83;102749.63;6210384;23;19931;-89
2023/01/21 10:41:26;;;;;;;;;;;;;;;8.96;47.89;102744.34;6208241;23;19911;-89
2023/01/21 10:44:14;;;;;;;;;;;;;;;9.02;48.01;102748.94;6211070;23;19938;-87
2023/01/21 10:46:47;;;;;;;;;;;;;;;9.01;47.45;102747.28;6210336;23;20225;-88
2023/01/21 10:49:43;;;;;;;;;;;;;;;9.04;47.83;102741.56;6210530;23;20240;-86
2023/01/21 10:52:14;;;;;;;;;;;;;;;9.06;47.39;102744.88;6103457;23;19910;-88
2023/01/21 10:54:54;;;;;;;;;;;;;;;9.07;47.46;102741.19;6209957;23;19903;-88
2023/01/21 10:57:47;;;;;;;;;;;;;;;9.10;47.82;102740.78;6210783;23;19908;-88
2023/01/21 11:00:21;;;;;;;;;;;;;;;9.13;47.73;102727.03;6210586;23;20244;-89
2023/01/21 11:02:49;;;;;;;;;;;;;;;9.16;47.42;102721.34;6210982;23;19912;-87
2023/01/21 11:05:15;;;;;;;;;;;;;;;9.19;47.47;102720.13;6213453;23;20106;-87
2023/01/21 11:07:42;;;;;;;;;;;;;;;9.22;47.17;102704.50;6212670;23;20351;-88
2023/01/21 11:10:08;;;;;;;;;;;;;;;9.22;47.28;102699.16;6213618;23;20339;-88
2023/01/21 11:12:33;;;;;;;;;;;;;;;9.26;47.40;102705.78;6213396;23;19908;-88
2023/01/21 11:15:06;;;;;;;;;;;;;;;9.29;47.35;102701.88;6213281;23;19931;-87
2023/01/21 11:17:33;;;;;;;;;;;;;;;9.31;47.10;102707.88;6213450;23;19935;-89
2023/01/21 11:19:59;;;;;;;;;;;;;;;9.35;47.21;102712.66;6212594;22;19907;-85
2023/01/21 11:22:27;;;;;;;;;;;;;;;9.41;47.25;102707.56;6207429;23;20390;-85
2023/01/21 11:24:53;;;;;;;;;;;;;;;9.45;47.10;102706.16;6210096;23;19916;-84
2023/01/21 11:27:20;;;;;;;;;;;;;;;9.46;47.21;102708.63;6210144;23;19981;-87
2023/01/21 11:29:46;;;;;;;;;;;;;;;9.47;46.88;102696.06;6212436;23;19908;-84
2023/01/21 11:32:19;;;;;;;;;;;;;;;9.48;46.84;102692.38;6208463;23;20091;-86
2023/01/21 11:34:50;;;;;;;;;;;;;;;9.52;46.81;102685.66;6209056;22;20263;-87
2023/01/21 11:37:23;;;;;;;;;;;;;;;9.53;47.03;102677.41;6211785;23;19916;-87
2023/01/21 11:39:55;;;;;;;;;;;;;;;9.55;46.72;102674.53;6213649;23;19911;-87
2023/01/21 11:42:20;;;;;;;;;;;;;;;9.56;46.58;102670.84;6210176;23;19911;-88
2023/01/21 11:44:49;;;;;;;;;;;;;;;9.56;46.67;102671.69;6209938;23;19922;-88
2023/01/21 11:47:26;;;;;;;;;;;;;;;9.60;46.89;102661.41;6207043;23;20206;-86
2023/01/21 11:49:52;;;;;;;;;;;;;;;9.60;46.38;102664.91;6209999;23;19919;-88
2023/01/21 11:52:18;;;;;;;;;;;;;;;9.60;46.36;102661.41;6207816;23;19930;-86
2023/01/21 11:54:44;;;;;;;;;;;;;;;9.60;46.25;102656.88;6208105;23;20172;-87
2023/01/21 11:57:21;;;;;;;;;;;;;;;9.62;46.43;102652.16;6210235;23;20011;-88
2023/01/21 11:59:48;;;;;;;;;;;;;;;9.66;46.54;102655.25;6209832;23;20038;-88
2023/01/21 12:02:13;;;;;;;;;;;;;;;9.69;46.18;102655.72;6209680;23;20251;-89
2023/01/21 12:04:47;;;;;;;;;;;;;;;9.72;46.51;102654.50;6183650;23;20043;-88
2023/01/21 12:07:16;;;;;;;;;;;;;;;9.71;46.01;102650.16;6208680;23;20339;-88
2023/01/21 12:09:47;;;;;;;;;;;;;;;9.72;46.19;102651.81;6208456;23;20388;-87
2023/01/21 12:12:36;;;;;;;;;;;;;;;9.72;45.83;102651.81;6209449;23;20457;-87
2023/01/21 12:15:14;;;;;;;;;;;;;;;9.71;46.25;102641.31;6204950;23;19912;-88
2023/01/21 12:17:42;;;;;;;;;;;;;;;9.69;45.77;102638.81;6207030;23;19919;-87
2023/01/21 12:20:23;;;;;;;;;;;;;;;9.70;46.22;102640.50;6205631;23;20239;-88
2023/01/21 12:23:07;;;;;;;;;;;;;;;9.71;45.63;102641.31;6208044;23;20348;-88
2023/01/21 12:25:43;;;;;;;;;;;;;;;9.71;46.08;102634.09;6207443;23;19908;-88
2023/01/21 12:28:18;;;;;;;;;;;;;;;9.73;45.91;102637.41;6206980;23;19908;-87
2023/01/21 12:31:02;;;;;;;;;;;;;;;9.76;46.06;102626.31;6206068;23;19911;-87
2023/01/21 12:33:43;;;;;;;;;;;;;;;9.79;45.93;102625.09;6205951;23;19912;-87
2023/01/21 12:36:14;;;;;;;;;;;;;;;9.80;46.02;102624.06;6202383;23;19935;-86
2023/01/21 12:38:51;;;;;;;;;;;;;;;9.79;45.80;102612.53;6204847;23;19916;-87
2023/01/21 12:41:25;;;;;;;;;;;;;;;9.79;45.76;102623.22;6204237;23;19966;-88
2023/01/21 12:43:58;;;;;;;;;;;;;;;9.79;45.86;102612.53;6204958;23;19916;-87
2023/01/21 12:46:26;;;;;;;;;;;;;;;9.77;45.43;102619.94;6205181;23;20383;-87
2023/01/21 12:48:51;;;;;;;;;;;;;;;9.78;45.49;102610.88;6204596;23;19977;-87
2023/01/21 12:51:20;;;;;;;;;;;;;;;9.78;45.62;102615.41;6203954;23;20422;-86
2023/01/21 12:53:49;;;;;;;;;;;;;;;9.77;45.28;102605.72;6205379;23;20028;-87
2023/01/21 12:56:43;;;;;;;;;;;;;;;9.74;45.26;102606.13;6206043;23;20201;-88
2023/01/21 12:59:27;;;;;;;;;;;;;;;9.70;45.46;102605.69;6092585;23;20036;-87
2023/01/21 13:01:52;;;;;;;;;;;;;;;9.68;45.51;102595.16;6201570;23;19990;-88